sensor_id;sensor_type;location;lat;lon;timestamp;pressure;altitude;pressure_sealevel;temperature;humidity
80648;BME280;70012;0.000;0.000;2023-05-17T00:01:06;101414.88;;;8.55;71.68
80648;BME280;70012;0.000;0.000;2023-05-17T00:03:32;101413.19;;;8.54;71.82
80648;BME280;70012;0.000;0.000;2023-05-17T00:05:59;101410.88;;;8.51;71.95
80648;BME280;70012;0.000;0.000;2023-05-17T00:08:26;101416.56;;;8.49;72.44
80648;BME280;70012;0.000;0.000;2023-05-17T00:10:52;101413.00;;;8.48;72.44
80648;BME280;70012;0.000;0.000;2023-05-17T00:13:19;101419.28;;;8.49;72.12
80648;BME280;70012;0.000;0.000;2023-05-17T00:15:46;101415.28;;;8.45;72.51
80648;BME280;70012;0.000;0.000;2023-05-17T00:18:12;101416.97;;;8.39;72.55
80648;BME280;70012;0.000;0.000;2023-05-17T00:20:39;101418.66;;;8.40;73.37
80648;BME280;70012;0.000;0.000;2023-05-17T00:23:06;101414.44;;;8.38;72.97
80648;BME280;70012;0.000;0.000;2023-05-17T00:25:33;101413.19;;;8.33;73.51
80648;BME280;70012;0.000;0.000;2023-05-17T00:27:59;101423.50;;;8.31;73.32
80648;BME280;70012;0.000;0.000;2023-05-17T00:30:26;101422.84;;;8.29;73.46
80648;BME280;70012;0.000;0.000;2023-05-17T00:32:53;101416.16;;;8.18;73.50
80648;BME280;70012;0.000;0.000;2023-05-17T00:35:19;101425.59;;;8.23;74.61
80648;BME280;70012;0.000;0.000;2023-05-17T00:37:46;101424.75;;;8.22;74.43
80648;BME280;70012;0.000;0.000;2023-05-17T00:40:13;101423.28;;;8.20;74.59
80648;BME280;70012;0.000;0.000;2023-05-17T00:42:41;101421.19;;;8.22;74.22
80648;BME280;70012;0.000;0.000;2023-05-17T00:45:08;101424.13;;;8.20;74.41
80648;BME280;70012;0.000;0.000;2023-05-17T00:47:34;101422.66;;;8.17;74.61
80648;BME280;70012;0.000;0.000;2023-05-17T00:50:05;101426.22;;;8.18;74.53
80648;BME280;70012;0.000;0.000;2023-05-17T00:52:32;101430.84;;;8.11;74.56
80648;BME280;70012;0.000;0.000;2023-05-17T00:54:58;101429.56;;;8.07;74.60
80648;BME280;70012;0.000;0.000;2023-05-17T00:57:25;101432.09;;;8.01;75.29
80648;BME280;70012;0.000;0.000;2023-05-17T00:59:55;101430.00;;;8.04;75.41
80648;BME280;70012;0.000;0.000;2023-05-17T01:02:21;101429.38;;;8.01;75.53
80648;BME280;70012;0.000;0.000;2023-05-17T01:04:48;101429.38;;;8.01;75.77
80648;BME280;70012;0.000;0.000;2023-05-17T01:07:15;101435.03;;;8.00;75.44
80648;BME280;70012;0.000;0.000;2023-05-17T01:09:43;101439.44;;;7.94;75.77
80648;BME280;70012;0.000;0.000;2023-05-17T01:15:14;101440.06;;;7.83;76.26
80648;BME280;70012;0.000;0.000;2023-05-17T01:17:55;101438.38;;;7.82;76.18
80648;BME280;70012;0.000;0.000;2023-05-17T01:20:27;101429.56;;;7.80;76.51
80648;BME280;70012;0.000;0.000;2023-05-17T01:25:56;101446.56;;;7.82;76.37
80648;BME280;70012;0.000;0.000;2023-05-17T01:28:26;101439.66;;;7.79;76.34
80648;BME280;70012;0.000;0.000;2023-05-17T01:30:54;101441.75;;;7.84;76.61
80648;BME280;70012;0.000;0.000;2023-05-17T01:33:21;101443.44;;;7.85;76.27
80648;BME280;70012;0.000;0.000;2023-05-17T01:35:48;101435.03;;;7.80;75.86
80648;BME280;70012;0.000;0.000;2023-05-17T01:38:15;101444.06;;;7.80;76.74
80648;BME280;70012;0.000;0.000;2023-05-17T01:40:54;101453.06;;;7.81;76.60
80648;BME280;70012;0.000;0.000;2023-05-17T01:43:30;101452.00;;;7.82;76.52
80648;BME280;70012;0.000;0.000;2023-05-17T01:46:23;101448.88;;;7.78;76.72
80648;BME280;70012;0.000;0.000;2023-05-17T01:49:03;101452.84;;;7.76;76.68
80648;BME280;70012;0.000;0.000;2023-05-17T01:51:33;101459.34;;;7.75;76.74
80648;BME280;70012;0.000;0.000;2023-05-17T01:54:04;101452.22;;;7.74;77.13
80648;BME280;70012;0.000;0.000;2023-05-17T01:56:40;101460.38;;;7.74;76.83
80648;BME280;70012;0.000;0.000;2023-05-17T01:59:10;101466.91;;;7.73;76.88
80648;BME280;70012;0.000;0.000;2023-05-17T02:01:40;101458.50;;;7.67;76.98
80648;BME280;70012;0.000;0.000;2023-05-17T02:04:08;101464.38;;;7.71;77.36
80648;BME280;70012;0.000;0.000;2023-05-17T02:06:35;101474.88;;;7.74;77.15
80648;BME280;70012;0.000;0.000;2023-05-17T02:09:02;101474.44;;;7.77;77.23
80648;BME280;70012;0.000;0.000;2023-05-17T02:11:29;101478.63;;;7.80;77.46
80648;BME280;70012;0.000;0.000;2023-05-17T02:13:56;101474.88;;;7.81;77.23
80648;BME280;70012;0.000;0.000;2023-05-17T02:16:24;101474.47;;;7.84;77.15
80648;BME280;70012;0.000;0.000;2023-05-17T02:18:51;101463.56;;;7.84;77.22
80648;BME280;70012;0.000;0.000;2023-05-17T02:21:17;101466.28;;;7.84;77.61
80648;BME280;70012;0.000;0.000;2023-05-17T02:23:45;101469.22;;;7.89;77.72
80648;BME280;70012;0.000;0.000;2023-05-17T02:26:12;101471.56;;;7.92;77.88
80648;BME280;70012;0.000;0.000;2023-05-17T02:28:38;101467.13;;;7.91;77.48
80648;BME280;70012;0.000;0.000;2023-05-17T02:31:07;101470.47;;;7.93;77.58
80648;BME280;70012;0.000;0.000;2023-05-17T02:33:34;101474.69;;;7.89;77.55
80648;BME280;70012;0.000;0.000;2023-05-17T02:36:01;101470.28;;;7.88;77.55
80648;BME280;70012;0.000;0.000;2023-05-17T02:38:27;101476.97;;;7.85;77.35
80648;BME280;70012;0.000;0.000;2023-05-17T02:40:54;101479.91;;;7.84;77.56
80648;BME280;70012;0.000;0.000;2023-05-17T02:43:21;101470.47;;;7.80;77.58
80648;BME280;70012;0.000;0.000;2023-05-17T02:45:48;101487.47;;;7.82;77.37
80648;BME280;70012;0.000;0.000;2023-05-17T02:48:14;101477.00;;;7.79;77.88
80648;BME280;70012;0.000;0.000;2023-05-17T02:50:41;101488.28;;;7.76;77.77
80648;BME280;70012;0.000;0.000;2023-05-17T02:53:08;101478.84;;;7.72;77.77
80648;BME280;70012;0.000;0.000;2023-05-17T02:55:35;101486.78;;;7.66;77.48
80648;BME280;70012;0.000;0.000;2023-05-17T02:58:01;101487.00;;;7.65;77.98
80648;BME280;70012;0.000;0.000;2023-05-17T03:00:29;101487.88;;;7.65;77.75
80648;BME280;70012;0.000;0.000;2023-05-17T03:02:55;101479.88;;;7.57;78.04
80648;BME280;70012;0.000;0.000;2023-05-17T03:05:22;101485.09;;;7.59;78.27
80648;BME280;70012;0.000;0.000;2023-05-17T03:07:49;101485.28;;;7.44;77.85
80648;BME280;70012;0.000;0.000;2023-05-17T03:10:15;101489.44;;;7.40;78.11
80648;BME280;70012;0.000;0.000;2023-05-17T03:12:43;101478.97;;;7.36;78.26
80648;BME280;70012;0.000;0.000;2023-05-17T03:15:10;101490.25;;;7.33;78.59
80648;BME280;70012;0.000;0.000;2023-05-17T03:17:36;101481.47;;;7.31;78.96
80648;BME280;70012;0.000;0.000;2023-05-17T03:20:03;101488.56;;;7.26;78.99
80648;BME280;70012;0.000;0.000;2023-05-17T03:22:31;101494.22;;;7.24;78.90
80648;BME280;70012;0.000;0.000;2023-05-17T03:24:58;101496.09;;;7.24;79.02
80648;BME280;70012;0.000;0.000;2023-05-17T03:27:25;101494.34;;;7.09;78.92
80648;BME280;70012;0.000;0.000;2023-05-17T03:29:51;101500.03;;;7.14;79.41
80648;BME280;70012;0.000;0.000;2023-05-17T03:32:18;101498.16;;;7.15;78.84
80648;BME280;70012;0.000;0.000;2023-05-17T03:34:45;101503.59;;;7.15;79.49
80648;BME280;70012;0.000;0.000;2023-05-17T03:37:11;101497.69;;;7.04;78.81
80648;BME280;70012;0.000;0.000;2023-05-17T03:39:38;101509.84;;;7.09;79.07
80648;BME280;70012;0.000;0.000;2023-05-17T03:42:05;101507.94;;;7.02;79.69
80648;BME280;70012;0.000;0.000;2023-05-17T03:44:31;101509.63;;;7.03;79.78
80648;BME280;70012;0.000;0.000;2023-05-17T03:46:58;101518.19;;;7.00;79.19
80648;BME280;70012;0.000;0.000;2023-05-17T03:49:25;101516.91;;;6.96;79.37
80648;BME280;70012;0.000;0.000;2023-05-17T03:51:51;101506.81;;;6.90;78.89
80648;BME280;70012;0.000;0.000;2023-05-17T03:54:18;101495.28;;;6.88;80.10
80648;BME280;70012;0.000;0.000;2023-05-17T03:56:45;101503.06;;;6.91;80.22
80648;BME280;70012;0.000;0.000;2023-05-17T03:59:14;101503.44;;;6.88;79.67
80648;BME280;70012;0.000;0.000;2023-05-17T04:01:42;101521.47;;;6.89;79.89
80648;BME280;70012;0.000;0.000;2023-05-17T04:04:09;101513.06;;;6.84;80.05
80648;BME280;70012;0.000;0.000;2023-05-17T04:06:37;101521.69;;;6.87;80.58
80648;BME280;70012;0.000;0.000;2023-05-17T04:09:04;101533.16;;;6.83;80.75
80648;BME280;70012;0.000;0.000;2023-05-17T04:11:30;101526.03;;;6.82;81.37
80648;BME280;70012;0.000;0.000;2023-05-17T04:13:58;101523.31;;;6.82;81.26
80648;BME280;70012;0.000;0.000;2023-05-17T04:16:25;101528.38;;;6.85;81.23
80648;BME280;70012;0.000;0.000;2023-05-17T04:18:53;101535.66;;;6.78;81.95
80648;BME280;70012;0.000;0.000;2023-05-17T04:21:20;101538.16;;;6.79;82.22
80648;BME280;70012;0.000;0.000;2023-05-17T04:23:47;101547.88;;;6.88;82.83
80648;BME280;70012;0.000;0.000;2023-05-17T04:26:14;101538.47;;;6.91;82.54
80648;BME280;70012;0.000;0.000;2023-05-17T04:28:41;101541.19;;;6.98;82.96
80648;BME280;70012;0.000;0.000;2023-05-17T04:31:08;101546.28;;;7.08;82.93
80648;BME280;70012;0.000;0.000;2023-05-17T04:33:36;101537.09;;;7.09;82.65
80648;BME280;70012;0.000;0.000;2023-05-17T04:36:03;101550.53;;;7.17;82.03
80648;BME280;70012;0.000;0.000;2023-05-17T04:38:29;101550.13;;;7.20;82.19
80648;BME280;70012;0.000;0.000;2023-05-17T04:41:04;101545.97;;;7.24;82.03
80648;BME280;70012;0.000;0.000;2023-05-17T04:43:32;101550.38;;;7.25;81.95
80648;BME280;70012;0.000;0.000;2023-05-17T04:45:59;101554.75;;;7.26;81.83
80648;BME280;70012;0.000;0.000;2023-05-17T04:48:25;101561.09;;;7.33;81.41
80648;BME280;70012;0.000;0.000;2023-05-17T04:50:53;101559.00;;;7.29;81.45
80648;BME280;70012;0.000;0.000;2023-05-17T04:53:54;101572.84;;;7.41;81.26
80648;BME280;70012;0.000;0.000;2023-05-17T04:56:20;101574.53;;;7.42;81.59
80648;BME280;70012;0.000;0.000;2023-05-17T04:58:48;101576.22;;;7.43;81.38
80648;BME280;70012;0.000;0.000;2023-05-17T05:01:17;101581.69;;;7.43;81.44
80648;BME280;70012;0.000;0.000;2023-05-17T05:03:44;101578.56;;;7.46;81.40
80648;BME280;70012;0.000;0.000;2023-05-17T05:06:10;101579.41;;;7.46;81.67
80648;BME280;70012;0.000;0.000;2023-05-17T05:08:37;101585.94;;;7.52;81.83
80648;BME280;70012;0.000;0.000;2023-05-17T05:11:04;101575.41;;;7.49;81.48
80648;BME280;70012;0.000;0.000;2023-05-17T05:13:30;101592.25;;;7.59;81.75
80648;BME280;70012;0.000;0.000;2023-05-17T05:15:57;101595.59;;;7.61;81.95
80648;BME280;70012;0.000;0.000;2023-05-17T05:18:24;101600.66;;;7.64;81.72
80648;BME280;70012;0.000;0.000;2023-05-17T05:20:51;101597.31;;;7.69;81.88
80648;BME280;70012;0.000;0.000;2023-05-17T05:23:17;101593.97;;;7.74;81.96
80648;BME280;70012;0.000;0.000;2023-05-17T05:25:44;101596.50;;;7.75;81.43
80648;BME280;70012;0.000;0.000;2023-05-17T05:28:11;101594.44;;;7.84;81.21
80648;BME280;70012;0.000;0.000;2023-05-17T05:30:38;101597.38;;;7.89;81.46
80648;BME280;70012;0.000;0.000;2023-05-17T05:33:04;101605.78;;;7.94;81.67
80648;BME280;70012;0.000;0.000;2023-05-17T05:35:31;101608.72;;;7.99;81.31
80648;BME280;70012;0.000;0.000;2023-05-17T05:37:58;101601.63;;;8.05;81.33
80648;BME280;70012;0.000;0.000;2023-05-17T05:40:25;101610.44;;;8.14;81.06
80648;BME280;70012;0.000;0.000;2023-05-17T05:42:52;101602.50;;;8.19;80.59
80648;BME280;70012;0.000;0.000;2023-05-17T05:45:18;101609.22;;;8.23;80.18
80648;BME280;70012;0.000;0.000;2023-05-17T05:47:47;101609.66;;;8.33;80.31
80648;BME280;70012;0.000;0.000;2023-05-17T05:50:14;101610.50;;;8.41;80.14
80648;BME280;70012;0.000;0.000;2023-05-17T05:52:40;101602.53;;;8.46;79.99
80648;BME280;70012;0.000;0.000;2023-05-17T05:55:07;101611.59;;;8.53;80.01
80648;BME280;70012;0.000;0.000;2023-05-17T05:57:34;101621.69;;;8.59;80.10
80648;BME280;70012;0.000;0.000;2023-05-17T06:00:01;101612.66;;;8.65;79.57
80648;BME280;70012;0.000;0.000;2023-05-17T06:02:28;101616.66;;;8.70;79.67
80648;BME280;70012;0.000;0.000;2023-05-17T06:04:55;101626.94;;;8.74;79.21
80648;BME280;70012;0.000;0.000;2023-05-17T06:07:22;101620.63;;;8.74;79.07
80648;BME280;70012;0.000;0.000;2023-05-17T06:09:48;101617.91;;;8.74;78.86
80648;BME280;70012;0.000;0.000;2023-05-17T06:12:15;101624.84;;;8.76;79.12
80648;BME280;70012;0.000;0.000;2023-05-17T06:14:43;101628.41;;;8.77;78.89
80648;BME280;70012;0.000;0.000;2023-05-17T06:17:09;101618.97;;;8.73;78.99
80648;BME280;70012;0.000;0.000;2023-05-17T06:19:36;101626.94;;;8.74;78.91
80648;BME280;70012;0.000;0.000;2023-05-17T06:22:03;101632.19;;;8.76;79.00
80648;BME280;70012;0.000;0.000;2023-05-17T06:24:29;101631.16;;;8.77;78.78
80648;BME280;70012;0.000;0.000;2023-05-17T06:26:56;101639.13;;;8.72;79.25
80648;BME280;70012;0.000;0.000;2023-05-17T06:29:23;101640.81;;;8.73;79.41
80648;BME280;70012;0.000;0.000;2023-05-17T06:31:49;101646.88;;;8.75;79.48
80648;BME280;70012;0.000;0.000;2023-05-17T06:34:16;101656.13;;;8.74;80.13
80648;BME280;70012;0.000;0.000;2023-05-17T06:36:43;101655.72;;;8.77;80.37
80648;BME280;70012;0.000;0.000;2023-05-17T06:39:09;101652.16;;;8.76;80.27
80648;BME280;70012;0.000;0.000;2023-05-17T06:41:36;101661.81;;;8.79;80.26
80648;BME280;70012;0.000;0.000;2023-05-17T06:44:03;101670.63;;;8.81;80.59
80648;BME280;70012;0.000;0.000;2023-05-17T06:46:29;101652.56;;;8.80;80.74
80648;BME280;70012;0.000;0.000;2023-05-17T06:48:56;101647.50;;;8.84;80.51
80648;BME280;70012;0.000;0.000;2023-05-17T06:51:23;101660.97;;;8.99;80.29
80648;BME280;70012;0.000;0.000;2023-05-17T06:53:50;101651.28;;;9.03;80.28
80648;BME280;70012;0.000;0.000;2023-05-17T06:56:16;101658.44;;;9.17;79.58
80648;BME280;70012;0.000;0.000;2023-05-17T06:58:43;101659.28;;;9.24;79.63
80648;BME280;70012;0.000;0.000;2023-05-17T07:01:09;101666.41;;;9.39;79.16
80648;BME280;70012;0.000;0.000;2023-05-17T07:03:36;101654.59;;;9.45;78.53
80648;BME280;70012;0.000;0.000;2023-05-17T07:06:03;101663.81;;;9.57;78.04
80648;BME280;70012;0.000;0.000;2023-05-17T07:08:30;101662.09;;;9.70;78.02
80648;BME280;70012;0.000;0.000;2023-05-17T07:10:56;101662.50;;;9.73;76.73
80648;BME280;70012;0.000;0.000;2023-05-17T07:13:23;101675.09;;;9.81;75.86
80648;BME280;70012;0.000;0.000;2023-05-17T07:15:50;101669.81;;;9.93;75.42
80648;BME280;70012;0.000;0.000;2023-05-17T07:18:16;101675.44;;;10.05;74.90
80648;BME280;70012;0.000;0.000;2023-05-17T07:20:43;101687.38;;;10.17;74.49
80648;BME280;70012;0.000;0.000;2023-05-17T07:23:09;101686.09;;;10.27;74.25
80648;BME280;70012;0.000;0.000;2023-05-17T07:25:36;101682.72;;;10.24;71.91
80648;BME280;70012;0.000;0.000;2023-05-17T07:28:04;101686.03;;;10.33;72.17
80648;BME280;70012;0.000;0.000;2023-05-17T07:30:30;101682.84;;;10.43;70.02
80648;BME280;70012;0.000;0.000;2023-05-17T07:33:00;101685.72;;;10.55;69.58
80648;BME280;70012;0.000;0.000;2023-05-17T07:35:26;101693.63;;;10.70;68.96
80648;BME280;70012;0.000;0.000;2023-05-17T07:37:53;101694.19;;;10.79;67.97
80648;BME280;70012;0.000;0.000;2023-05-17T07:40:20;101685.94;;;10.85;67.59
80648;BME280;70012;0.000;0.000;2023-05-17T07:42:47;101688.84;;;10.91;67.13
80648;BME280;70012;0.000;0.000;2023-05-17T07:45:14;101693.91;;;10.94;67.44
80648;BME280;70012;0.000;0.000;2023-05-17T07:47:41;101694.06;;;10.99;66.44
80648;BME280;70012;0.000;0.000;2023-05-17T07:50:10;101687.84;;;11.10;66.89
80648;BME280;70012;0.000;0.000;2023-05-17T07:52:37;101694.22;;;11.04;65.11
80648;BME280;70012;0.000;0.000;2023-05-17T07:55:04;101702.94;;;11.19;65.62
80648;BME280;70012;0.000;0.000;2023-05-17T07:57:31;101688.50;;;11.31;66.17
80648;BME280;70012;0.000;0.000;2023-05-17T07:59:57;101698.44;;;11.50;63.80
80648;BME280;70012;0.000;0.000;2023-05-17T08:02:24;101691.88;;;11.70;64.30
80648;BME280;70012;0.000;0.000;2023-05-17T08:04:51;101701.19;;;11.88;64.61
80648;BME280;70012;0.000;0.000;2023-05-17T08:07:17;101701.19;;;11.88;62.91
80648;BME280;70012;0.000;0.000;2023-05-17T08:09:44;101700.22;;;11.82;61.40
80648;BME280;70012;0.000;0.000;2023-05-17T08:12:10;101700.25;;;11.75;62.33
80648;BME280;70012;0.000;0.000;2023-05-17T08:14:38;101698.59;;;11.74;62.29
80648;BME280;70012;0.000;0.000;2023-05-17T08:17:05;101698.22;;;11.89;62.46
80648;BME280;70012;0.000;0.000;2023-05-17T08:19:31;101706.72;;;12.06;62.54
80648;BME280;70012;0.000;0.000;2023-05-17T08:21:58;101705.94;;;12.17;60.22
80648;BME280;70012;0.000;0.000;2023-05-17T08:24:25;101699.63;;;12.29;60.23
80648;BME280;70012;0.000;0.000;2023-05-17T08:26:51;101706.13;;;12.35;60.50
80648;BME280;70012;0.000;0.000;2023-05-17T08:29:18;101710.00;;;12.45;58.80
80648;BME280;70012;0.000;0.000;2023-05-17T08:31:44;101706.94;;;12.54;58.41
80648;BME280;70012;0.000;0.000;2023-05-17T08:34:11;101700.00;;;12.63;58.62
80648;BME280;70012;0.000;0.000;2023-05-17T08:36:38;101702.38;;;12.59;57.52
80648;BME280;70012;0.000;0.000;2023-05-17T08:39:04;101697.94;;;12.46;56.00
80648;BME280;70012;0.000;0.000;2023-05-17T08:41:33;101697.78;;;12.41;56.96
80648;BME280;70012;0.000;0.000;2023-05-17T08:44:02;101707.31;;;12.57;57.75
80648;BME280;70012;0.000;0.000;2023-05-17T08:46:33;101701.25;;;12.67;58.12
80648;BME280;70012;0.000;0.000;2023-05-17T08:49:04;101702.94;;;12.80;56.06
80648;BME280;70012;0.000;0.000;2023-05-17T08:51:31;101704.06;;;13.03;53.61
80648;BME280;70012;0.000;0.000;2023-05-17T08:53:58;101700.59;;;13.07;53.84
80648;BME280;70012;0.000;0.000;2023-05-17T08:56:24;101711.31;;;12.97;55.09
80648;BME280;70012;0.000;0.000;2023-05-17T08:58:53;101714.41;;;12.89;52.23
80648;BME280;70012;0.000;0.000;2023-05-17T09:01:24;101715.34;;;12.82;54.16
80648;BME280;70012;0.000;0.000;2023-05-17T09:03:53;101707.81;;;12.78;54.06
80648;BME280;70012;0.000;0.000;2023-05-17T09:06:21;101689.31;;;12.73;54.09
80648;BME280;70012;0.000;0.000;2023-05-17T09:08:52;101708.91;;;12.89;52.82
80648;BME280;70012;0.000;0.000;2023-05-17T09:11:32;101702.75;;;13.05;54.16
80648;BME280;70012;0.000;0.000;2023-05-17T09:14:01;101709.94;;;13.30;52.37
80648;BME280;70012;0.000;0.000;2023-05-17T09:16:33;101710.44;;;13.27;50.75
80648;BME280;70012;0.000;0.000;2023-05-17T09:19:02;101704.66;;;13.17;51.90
80648;BME280;70012;0.000;0.000;2023-05-17T09:21:30;101700.72;;;13.12;51.97
80648;BME280;70012;0.000;0.000;2023-05-17T09:23:57;101699.50;;;13.08;51.44
80648;BME280;70012;0.000;0.000;2023-05-17T09:26:39;101702.47;;;12.95;51.33
80648;BME280;70012;0.000;0.000;2023-05-17T09:29:13;101708.34;;;12.87;50.89
80648;BME280;70012;0.000;0.000;2023-05-17T09:31:42;101704.84;;;12.79;50.09
80648;BME280;70012;0.000;0.000;2023-05-17T09:34:09;101700.13;;;12.68;49.59
80648;BME280;70012;0.000;0.000;2023-05-17T09:36:37;101707.56;;;12.68;49.10
80648;BME280;70012;0.000;0.000;2023-05-17T09:39:06;101702.88;;;12.68;45.46
80648;BME280;70012;0.000;0.000;2023-05-17T09:41:45;101709.56;;;13.03;46.74
80648;BME280;70012;0.000;0.000;2023-05-17T09:44:14;101702.13;;;13.03;45.33
80648;BME280;70012;0.000;0.000;2023-05-17T09:46:46;101704.31;;;13.13;47.46
80648;BME280;70012;0.000;0.000;2023-05-17T09:49:14;101703.41;;;13.43;44.84
80648;BME280;70012;0.000;0.000;2023-05-17T09:51:43;101704.34;;;13.72;45.69
80648;BME280;70012;0.000;0.000;2023-05-17T09:54:11;101696.72;;;14.03;45.99
80648;BME280;70012;0.000;0.000;2023-05-17T09:56:38;101715.03;;;14.38;46.24
80648;BME280;70012;0.000;0.000;2023-05-17T09:59:14;101699.91;;;14.53;42.17
80648;BME280;70012;0.000;0.000;2023-05-17T10:01:43;101692.03;;;14.73;41.23
80648;BME280;70012;0.000;0.000;2023-05-17T10:04:11;101703.97;;;14.96;40.63
80648;BME280;70012;0.000;0.000;2023-05-17T10:06:40;101701.16;;;15.08;41.76
80648;BME280;70012;0.000;0.000;2023-05-17T10:09:12;101699.06;;;15.15;40.39
80648;BME280;70012;0.000;0.000;2023-05-17T10:11:42;101703.09;;;15.08;42.54
80648;BME280;70012;0.000;0.000;2023-05-17T10:14:27;101699.13;;;15.03;42.00
80648;BME280;70012;0.000;0.000;2023-05-17T10:16:57;101694.63;;;14.80;41.59
80648;BME280;70012;0.000;0.000;2023-05-17T10:19:24;101684.94;;;14.78;42.46
80648;BME280;70012;0.000;0.000;2023-05-17T10:21:52;101686.91;;;14.65;42.39
80648;BME280;70012;0.000;0.000;2023-05-17T10:24:19;101678.19;;;14.56;39.67
80648;BME280;70012;0.000;0.000;2023-05-17T10:26:49;101683.19;;;14.60;42.50
80648;BME280;70012;0.000;0.000;2023-05-17T10:29:15;101689.22;;;14.56;41.76
80648;BME280;70012;0.000;0.000;2023-05-17T10:31:44;101681.66;;;14.35;40.95
80648;BME280;70012;0.000;0.000;2023-05-17T10:34:11;101685.53;;;14.51;41.96
80648;BME280;70012;0.000;0.000;2023-05-17T10:36:42;101682.44;;;14.76;40.93
80648;BME280;70012;0.000;0.000;2023-05-17T10:39:10;101691.31;;;14.95;43.20
80648;BME280;70012;0.000;0.000;2023-05-17T10:41:41;101678.34;;;15.13;39.58
80648;BME280;70012;0.000;0.000;2023-05-17T10:44:11;101682.72;;;15.48;40.11
80648;BME280;70012;0.000;0.000;2023-05-17T10:46:39;101682.22;;;15.73;38.69
80648;BME280;70012;0.000;0.000;2023-05-17T10:49:06;101692.25;;;16.19;42.66
80648;BME280;70012;0.000;0.000;2023-05-17T10:51:35;101680.97;;;16.53;37.87
80648;BME280;70012;0.000;0.000;2023-05-17T10:54:08;101683.50;;;16.54;38.45
80648;BME280;70012;0.000;0.000;2023-05-17T10:56:39;101675.75;;;16.29;38.17
80648;BME280;70012;0.000;0.000;2023-05-17T11:02:01;101667.59;;;16.17;38.72
80648;BME280;70012;0.000;0.000;2023-05-17T11:04:34;101670.75;;;16.53;36.51
80648;BME280;70012;0.000;0.000;2023-05-17T11:12:35;101657.66;;;17.41;37.72
80648;BME280;70012;0.000;0.000;2023-05-17T11:15:10;101652.75;;;17.10;37.53
80648;BME280;70012;0.000;0.000;2023-05-17T11:23:00;101655.22;;;16.47;38.78
80648;BME280;70012;0.000;0.000;2023-05-17T11:25:28;101643.50;;;16.67;39.08
80648;BME280;70012;0.000;0.000;2023-05-17T11:27:57;101660.34;;;16.93;38.42
80648;BME280;70012;0.000;0.000;2023-05-17T11:30:26;101653.81;;;16.77;37.85
80648;BME280;70012;0.000;0.000;2023-05-17T11:33:04;101659.66;;;16.80;37.97
80648;BME280;70012;0.000;0.000;2023-05-17T11:35:42;101648.28;;;17.04;37.33
80648;BME280;70012;0.000;0.000;2023-05-17T11:38:20;101654.19;;;17.18;36.70
80648;BME280;70012;0.000;0.000;2023-05-17T11:40:49;101649.91;;;17.43;37.45
80648;BME280;70012;0.000;0.000;2023-05-17T11:43:18;101646.41;;;17.58;34.09
80648;BME280;70012;0.000;0.000;2023-05-17T11:45:56;101641.81;;;17.31;34.98
80648;BME280;70012;0.000;0.000;2023-05-17T11:48:24;101641.03;;;16.98;35.99
80648;BME280;70012;0.000;0.000;2023-05-17T11:50:53;101642.31;;;16.90;36.31
80648;BME280;70012;0.000;0.000;2023-05-17T11:53:20;101642.44;;;17.01;37.13
80648;BME280;70012;0.000;0.000;2023-05-17T11:55:48;101643.38;;;17.17;34.64
80648;BME280;70012;0.000;0.000;2023-05-17T11:58:23;101634.97;;;17.44;35.36
80648;BME280;70012;0.000;0.000;2023-05-17T12:00:56;101630.66;;;17.69;35.11
80648;BME280;70012;0.000;0.000;2023-05-17T12:03:24;101642.38;;;17.91;35.22
80648;BME280;70012;0.000;0.000;2023-05-17T12:06:11;101648.25;;;18.00;36.46
80648;BME280;70012;0.000;0.000;2023-05-17T12:08:42;101638.41;;;17.67;34.92
80648;BME280;70012;0.000;0.000;2023-05-17T12:11:15;101627.41;;;17.29;34.54
80648;BME280;70012;0.000;0.000;2023-05-17T12:13:43;101636.03;;;17.38;34.77
80648;BME280;70012;0.000;0.000;2023-05-17T12:16:13;101630.31;;;17.55;36.44
80648;BME280;70012;0.000;0.000;2023-05-17T12:21:18;101612.81;;;17.44;37.12
80648;BME280;70012;0.000;0.000;2023-05-17T12:23:50;101625.03;;;17.48;35.49
80648;BME280;70012;0.000;0.000;2023-05-17T12:26:19;101639.13;;;17.47;35.92
80648;BME280;70012;0.000;0.000;2023-05-17T12:28:55;101634.34;;;17.37;34.94
80648;BME280;70012;0.000;0.000;2023-05-17T12:31:34;101637.38;;;17.30;37.42
80648;BME280;70012;0.000;0.000;2023-05-17T12:34:04;101629.41;;;17.44;37.28
80648;BME280;70012;0.000;0.000;2023-05-17T12:36:32;101627.81;;;17.53;36.63
80648;BME280;70012;0.000;0.000;2023-05-17T12:39:00;101627.94;;;17.84;36.69
80648;BME280;70012;0.000;0.000;2023-05-17T12:41:28;101633.00;;;17.98;34.23
80648;BME280;70012;0.000;0.000;2023-05-17T12:43:55;101641.38;;;18.13;35.95
80648;BME280;70012;0.000;0.000;2023-05-17T12:46:40;101632.81;;;18.25;34.50
80648;BME280;70012;0.000;0.000;2023-05-17T12:49:08;101631.38;;;18.07;35.21
80648;BME280;70012;0.000;0.000;2023-05-17T12:51:39;101641.25;;;17.82;33.58
80648;BME280;70012;0.000;0.000;2023-05-17T12:54:07;101638.94;;;17.64;33.07
80648;BME280;70012;0.000;0.000;2023-05-17T12:56:34;101630.16;;;17.82;34.83
80648;BME280;70012;0.000;0.000;2023-05-17T13:01:42;101631.69;;;17.52;33.89
80648;BME280;70012;0.000;0.000;2023-05-17T13:04:10;101629.69;;;17.42;34.34
80648;BME280;70012;0.000;0.000;2023-05-17T13:09:18;101634.91;;;17.34;36.22
80648;BME280;70012;0.000;0.000;2023-05-17T13:11:53;101631.66;;;17.42;34.80
80648;BME280;70012;0.000;0.000;2023-05-17T13:14:40;101628.34;;;17.50;35.81
80648;BME280;70012;0.000;0.000;2023-05-17T13:19:45;101616.31;;;17.87;34.03
80648;BME280;70012;0.000;0.000;2023-05-17T13:22:12;101626.41;;;18.09;34.43
80648;BME280;70012;0.000;0.000;2023-05-17T13:24:42;101625.25;;;18.00;33.72
80648;BME280;70012;0.000;0.000;2023-05-17T13:27:10;101626.94;;;18.01;34.57
80648;BME280;70012;0.000;0.000;2023-05-17T13:29:40;101625.84;;;18.07;34.86
80648;BME280;70012;0.000;0.000;2023-05-17T13:32:09;101638.84;;;18.01;34.71
80648;BME280;70012;0.000;0.000;2023-05-17T13:34:38;101628.50;;;17.81;34.51
80648;BME280;70012;0.000;0.000;2023-05-17T13:37:05;101625.16;;;17.84;35.20
80648;BME280;70012;0.000;0.000;2023-05-17T13:39:37;101619.00;;;17.62;34.75
80648;BME280;70012;0.000;0.000;2023-05-17T13:42:03;101619.97;;;17.35;33.62